Time;durP1;ratioP1;P1;durP2;ratioP2;P2;SDS_P1;SDS_P2;PMS_P1;PMS_P2;Temp;Humidity;BMP_temperature;BMP_pressure;BME280_temperature;BME280_humidity;BME280_pressure;Samples;Min_cycle;Max_cycle;Signal;HPM_P1;HPM_P2
2021/07/18 00:00:33;;;;;;;33.00;19.30;;;;;;;17.42;100.00;97010.31;5019823;28;20045;-66
2021/07/18 00:02:59;;;;;;;29.73;18.25;;;;;;;17.47;100.00;97001.59;5008805;28;20041;-64
2021/07/18 00:05:24;;;;;;;29.15;18.48;;;;;;;17.48;100.00;96999.59;5034845;28;20055;-63
2021/07/18 00:07:50;;;;;;;33.45;19.27;;;;;;;17.42;100.00;97002.00;5035205;28;20045;-64
2021/07/18 00:10:16;;;;;;;28.92;18.77;;;;;;;17.38;100.00;97004.03;5031298;28;20557;-64
2021/07/18 00:12:42;;;;;;;30.30;18.75;;;;;;;17.41;100.00;96996.88;5031092;28;20096;-65
2021/07/18 00:15:10;;;;;;;32.53;18.45;;;;;;;17.43;100.00;96986.19;5032470;28;20055;-65
2021/07/18 00:17:39;;;;;;;34.92;19.70;;;;;;;17.33;100.00;96990.59;5030016;28;20052;-65
2021/07/18 00:20:12;;;;;;;25.17;18.20;;;;;;;17.25;100.00;96981.56;5030438;28;20107;-65
2021/07/18 00:22:39;;;;;;;27.35;19.05;;;;;;;17.23;100.00;96980.38;5038194;28;20131;-65
2021/07/18 00:25:06;;;;;;;26.98;18.40;;;;;;;17.24;100.00;96988.28;5033931;28;20041;-64
2021/07/18 00:27:32;;;;;;;28.30;19.42;;;;;;;17.28;100.00;96980.72;5037777;28;20374;-65
2021/07/18 00:29:57;;;;;;;32.13;17.88;;;;;;;17.20;100.00;96984.75;5037483;28;20138;-65
2021/07/18 00:32:23;;;;;;;33.65;20.33;;;;;;;17.13;100.00;96982.78;5032948;28;20075;-63
2021/07/18 00:34:48;;;;;;;30.20;20.52;;;;;;;17.05;100.00;96980.44;5019105;28;20401;-65
2021/07/18 00:37:13;;;;;;;29.33;20.48;;;;;;;16.80;100.00;96984.09;5014556;28;20506;-65
2021/07/18 00:39:39;;;;;;;34.97;20.30;;;;;;;16.67;100.00;96980.19;5019759;28;20045;-65
2021/07/18 00:42:05;;;;;;;40.78;24.02;;;;;;;16.64;100.00;96979.00;5035053;28;20420;-64
2021/07/18 00:44:30;;;;;;;43.83;24.25;;;;;;;16.54;100.00;96990.88;5024720;28;20441;-65
2021/07/18 00:46:56;;;;;;;46.20;23.88;;;;;;;16.45;100.00;96991.28;5039420;28;20047;-65
2021/07/18 00:49:22;;;;;;;43.72;25.67;;;;;;;16.49;100.00;96989.31;5032213;28;20056;-65
2021/07/18 00:51:47;;;;;;;43.08;25.25;;;;;;;16.52;100.00;96996.03;5038999;28;20048;-65
2021/07/18 00:54:15;;;;;;;44.13;24.98;;;;;;;16.59;100.00;96994.03;5031468;28;20045;-65
2021/07/18 00:56:41;;;;;;;42.67;25.30;;;;;;;16.62;100.00;97000.75;5038318;28;20067;-66
2021/07/18 00:59:07;;;;;;;42.95;24.52;;;;;;;16.73;100.00;96987.66;5023689;28;20060;-65
2021/07/18 01:01:33;;;;;;;37.25;22.65;;;;;;;16.76;100.00;96994.38;5018510;28;20124;-66
2021/07/18 01:03:59;;;;;;;39.88;22.73;;;;;;;16.78;100.00;96992.78;5016673;28;20208;-66
2021/07/18 01:06:25;;;;;;;31.52;20.60;;;;;;;16.77;100.00;96993.19;5009587;28;20326;-66
2021/07/18 01:08:51;;;;;;;35.28;22.85;;;;;;;16.80;100.00;97000.69;5018807;28;20056;-65
2021/07/18 01:11:17;;;;;;;32.80;22.00;;;;;;;16.82;100.00;97001.88;5025712;28;20132;-64
2021/07/18 01:13:43;;;;;;;42.15;21.58;;;;;;;16.64;100.00;97001.13;5030047;28;20148;-64
2021/07/18 01:16:09;;;;;;;40.65;23.55;;;;;;;16.72;100.00;96999.91;5030007;28;20106;-64
2021/07/18 01:18:35;;;;;;;34.88;21.40;;;;;;;16.76;100.00;97002.66;5038815;28;20561;-64
2021/07/18 01:21:02;;;;;;;37.83;21.85;;;;;;;16.83;100.00;97005.44;5039576;28;20155;-64
2021/07/18 01:23:29;;;;;;;37.95;21.48;;;;;;;16.88;100.00;97005.03;5034187;28;20045;-64
2021/07/18 01:25:54;;;;;;;32.38;21.17;;;;;;;16.91;100.00;97004.25;5032591;28;20044;-64
2021/07/18 01:28:20;;;;;;;36.30;20.90;;;;;;;16.91;100.00;96993.16;5031197;28;20490;-64
2021/07/18 01:30:46;;;;;;;39.63;21.30;;;;;;;16.90;100.00;96999.88;5035269;28;20195;-65
2021/07/18 01:33:12;;;;;;;33.90;20.92;;;;;;;16.98;100.00;97000.66;5031496;28;20232;-64
2021/07/18 01:35:38;;;;;;;33.45;20.63;;;;;;;16.96;100.00;96992.75;5038705;28;20100;-63
2021/07/18 01:38:08;;;;;;;36.58;21.10;;;;;;;17.04;100.00;96998.25;5030024;28;20041;-63
2021/07/18 01:40:34;;;;;;;32.53;19.95;;;;;;;17.09;100.00;96990.31;5039225;28;20041;-65
2021/07/18 01:43:00;;;;;;;37.25;18.50;;;;;;;17.16;100.00;96987.53;5039887;28;20413;-64
2021/07/18 01:45:25;;;;;;;33.65;21.17;;;;;;;17.16;100.00;96989.47;5036158;28;20045;-65
2021/07/18 01:47:51;;;;;;;30.10;18.50;;;;;;;17.27;100.00;96986.66;5042061;28;20033;-65
2021/07/18 01:50:17;;;;;;;36.33;20.60;;;;;;;17.29;100.00;96989.84;5034252;28;20039;-63
2021/07/18 01:52:43;;;;;;;29.95;18.05;;;;;;;17.35;100.00;96993.75;5040147;28;20048;-65
2021/07/18 01:55:12;;;;;;;30.77;19.13;;;;;;;17.38;100.00;96990.19;5023037;28;20112;-64
2021/07/18 01:57:38;;;;;;;34.67;19.88;;;;;;;17.36;100.00;96987.03;5031302;28;20048;-65
2021/07/18 02:00:09;;;;;;;29.13;17.65;;;;;;;17.48;100.00;96982.97;5028988;28;20057;-65
2021/07/18 02:02:35;;;;;;;35.00;18.35;;;;;;;17.52;100.00;96986.50;5041511;28;20044;-65
2021/07/18 02:05:00;;;;;;;31.80;18.45;;;;;;;17.55;100.00;96983.72;5036625;28;20064;-65
2021/07/18 02:07:27;;;;;;;31.38;17.65;;;;;;;17.57;100.00;96986.09;5034183;28;20045;-65
2021/07/18 02:09:56;;;;;;;32.13;18.20;;;;;;;17.55;100.00;96983.72;5036477;28;20039;-66
2021/07/18 02:12:22;;;;;;;34.28;18.13;;;;;;;17.51;100.00;96982.97;5035587;28;20055;-64
2021/07/18 02:14:47;;;;;;;27.85;18.05;;;;;;;17.52;100.00;96987.31;5036051;28;20041;-63
2021/07/18 02:17:13;;;;;;;28.05;18.05;;;;;;;17.51;100.00;96996.03;5036757;28;20055;-64
2021/07/18 02:19:39;;;;;;;26.73;15.95;;;;;;;17.56;100.00;96992.84;5039524;28;20136;-63
2021/07/18 02:22:05;;;;;;;26.88;17.67;;;;;;;17.70;100.00;96991.94;5035471;28;20881;-64
2021/07/18 02:24:31;;;;;;;25.92;14.75;;;;;;;17.68;100.00;96991.56;5043921;28;20519;-64
2021/07/18 02:26:57;;;;;;;25.45;16.02;;;;;;;17.66;100.00;96996.72;5042343;28;20041;-65
2021/07/18 02:29:23;;;;;;;24.55;14.65;;;;;;;17.63;100.00;96994.75;5036819;28;20373;-65
2021/07/18 02:31:51;;;;;;;25.67;13.57;;;;;;;17.69;100.00;96990.38;5037852;28;20048;-64
2021/07/18 02:34:17;;;;;;;22.05;12.98;;;;;;;17.70;100.00;96995.50;5019203;28;20041;-65
2021/07/18 02:36:42;;;;;;;18.02;12.60;;;;;;;17.63;100.00;96994.75;5041166;28;20048;-62
2021/07/18 02:39:08;;;;;;;23.40;13.15;;;;;;;17.62;100.00;96991.19;5026062;28;20045;-62
2021/07/18 02:41:35;;;;;;;21.30;12.60;;;;;;;17.62;100.00;96993.19;5041347;28;20047;-65
2021/07/18 02:44:03;;;;;;;22.17;12.10;;;;;;;17.65;100.00;97000.69;5038821;28;20047;-65
2021/07/18 02:46:29;;;;;;;22.77;13.18;;;;;;;17.66;100.00;97000.25;5033212;28;20040;-65
2021/07/18 02:48:54;;;;;;;20.20;12.55;;;;;;;17.58;100.00;97013.38;5041975;28;20041;-64
2021/07/18 02:51:20;;;;;;;19.73;11.90;;;;;;;17.53;100.00;97013.03;5031663;28;20095;-64
2021/07/18 02:53:45;;;;;;;20.63;12.63;;;;;;;17.50;100.00;97006.31;5040067;28;20378;-64
2021/07/18 02:56:11;;;;;;;28.40;12.50;;;;;;;17.47;100.00;96998.81;5031065;28;20051;-64
2021/07/18 02:58:37;;;;;;;20.73;11.77;;;;;;;17.44;100.00;96999.63;5016234;28;20045;-64
2021/07/18 03:01:04;;;;;;;19.02;12.35;;;;;;;17.44;100.00;97004.38;5039792;28;20037;-64
2021/07/18 03:03:30;;;;;;;20.80;12.25;;;;;;;17.45;100.00;97006.75;5040862;28;20569;-64
2021/07/18 03:05:55;;;;;;;22.08;13.07;;;;;;;17.42;100.00;97001.22;5041481;28;20139;-63
2021/07/18 03:08:21;;;;;;;22.52;12.73;;;;;;;17.38;100.00;97004.03;5036565;28;20047;-62
2021/07/18 03:10:46;;;;;;;21.95;12.55;;;;;;;17.35;100.00;97011.13;5039987;28;20560;-62
2021/07/18 03:13:12;;;;;;;24.05;12.18;;;;;;;17.42;100.00;97012.31;5029602;28;20076;-62
2021/07/18 03:15:38;;;;;;;19.90;11.68;;;;;;;17.41;100.00;97008.72;5039654;28;20122;-62
2021/07/18 03:18:08;;;;;;;21.70;11.85;;;;;;;17.44;100.00;97004.38;5035732;28;20043;-62
2021/07/18 03:20:34;;;;;;;24.35;12.50;;;;;;;17.50;100.00;97006.31;5023130;28;20064;-62
2021/07/18 03:23:00;;;;;;;17.45;10.32;;;;;;;17.52;100.00;97003.94;5038694;28;20076;-65
2021/07/18 03:25:25;;;;;;;21.65;11.07;;;;;;;17.53;100.00;97002.72;5030688;28;20044;-64
2021/07/18 03:27:51;;;;;;;22.60;12.45;;;;;;;17.53;100.00;97004.72;5039381;28;20056;-62
2021/07/18 03:30:20;;;;;;;18.48;11.38;;;;;;;17.74;100.00;97004.56;5029505;28;20048;-62
2021/07/18 03:32:46;;;;;;;20.40;11.97;;;;;;;17.65;100.00;96995.94;5038818;28;20041;-64
2021/07/18 03:35:12;;;;;;;23.90;12.40;;;;;;;17.78;100.00;96999.00;5030257;28;20060;-64
2021/07/18 03:37:39;;;;;;;26.33;15.57;;;;;;;17.70;100.00;97005.78;5040628;28;20066;-64
2021/07/18 03:40:13;;;;;;;26.17;12.98;;;;;;;17.74;100.00;97001.81;5034985;28;20037;-65
2021/07/18 03:42:39;;;;;;;18.38;12.38;;;;;;;17.70;100.00;97003.00;5039734;28;20041;-64
2021/07/18 03:45:07;;;;;;;21.20;12.57;;;;;;;17.78;100.00;96999.78;5028393;28;20051;-64
2021/07/18 03:47:34;;;;;;;18.70;12.63;;;;;;;17.83;100.00;97000.56;5038395;28;20080;-64
2021/07/18 03:49:59;;;;;;;23.60;13.52;;;;;;;17.59;100.00;97000.31;5040310;28;20108;-64
2021/07/18 03:52:25;;;;;;;23.52;13.82;;;;;;;17.52;100.00;97003.13;5030569;28;20124;-64
2021/07/18 03:54:50;;;;;;;20.83;12.05;;;;;;;17.80;100.00;96999.38;5038417;28;20051;-63
2021/07/18 03:57:16;;;;;;;19.25;13.55;;;;;;;17.65;100.00;96992.38;5033814;28;20401;-62
2021/07/18 03:59:41;;;;;;;22.35;12.82;;;;;;;17.71;100.00;96993.53;5040959;28;20392;-62
2021/07/18 04:02:07;;;;;;;21.70;13.30;;;;;;;17.73;100.00;96985.59;5030145;28;20490;-63
2021/07/18 04:04:34;;;;;;;21.55;13.88;;;;;;;17.40;100.00;96990.56;5028722;28;20132;-63
2021/07/18 04:07:00;;;;;;;24.05;13.70;;;;;;;17.36;100.00;96998.88;5040397;28;20032;-63
2021/07/18 04:09:26;;;;;;;13.65;9.70;;;;;;;17.32;100.00;96994.53;5026256;28;20130;-64
2021/07/18 04:11:52;;;;;;;21.30;10.27;;;;;;;17.65;100.00;96989.63;5020390;28;20503;-63
2021/07/18 04:14:17;;;;;;;20.17;11.63;;;;;;;17.58;100.00;96995.97;5029248;28;20049;-63
2021/07/18 04:16:43;;;;;;;30.02;12.38;;;;;;;17.40;100.00;97012.69;5028757;28;20045;-63
2021/07/18 04:19:08;;;;;;;22.52;13.10;;;;;;;17.45;100.00;97005.94;5026106;28;20041;-63
2021/07/18 04:21:34;;;;;;;21.27;11.98;;;;;;;17.42;100.00;97015.84;5034060;28;20167;-64
2021/07/18 04:23:59;;;;;;;19.20;12.18;;;;;;;17.62;100.00;97007.81;5038574;28;20120;-63
2021/07/18 04:26:25;;;;;;;23.67;13.05;;;;;;;17.65;100.00;97009.78;5030477;28;20485;-64
2021/07/18 04:28:51;;;;;;;27.52;13.40;;;;;;;17.76;100.00;97010.50;5029141;28;20160;-63
2021/07/18 04:31:17;;;;;;;19.20;10.38;;;;;;;17.83;100.00;97017.97;5030674;28;20073;-63
2021/07/18 04:33:43;;;;;;;21.67;11.57;;;;;;;17.76;100.00;97020.78;5031841;28;20045;-63
2021/07/18 04:36:10;;;;;;;19.13;11.52;;;;;;;18.07;100.00;97016.22;5034142;28;20179;-63
2021/07/18 04:38:36;;;;;;;24.67;11.25;;;;;;;18.08;100.00;97020.56;5029627;28;20128;-64
2021/07/18 04:41:01;;;;;;;17.52;10.55;;;;;;;18.11;100.00;97017.00;5028990;28;20127;-63
2021/07/18 04:43:27;;;;;;;18.20;10.40;;;;;;;18.21;100.00;97018.09;5017279;28;20513;-64
2021/07/18 04:45:52;;;;;;;15.18;8.93;;;;;;;18.40;97.26;97022.28;5038263;28;20127;-64
2021/07/18 04:48:17;;;;;;;20.60;10.73;;;;;;;18.39;100.00;97019.91;5046247;28;20051;-65
2021/07/18 04:50:44;;;;;;;17.75;10.88;;;;;;;18.53;100.00;97022.56;5047232;28;20130;-65
2021/07/18 04:53:10;;;;;;;15.65;10.32;;;;;;;18.63;99.13;97026.41;5036274;28;20045;-62
2021/07/18 04:55:35;;;;;;;17.65;10.00;;;;;;;19.05;98.26;97027.16;5036820;28;20460;-62
2021/07/18 04:58:01;;;;;;;15.50;10.07;;;;;;;19.52;96.13;97024.59;5023884;28;20128;-63
2021/07/18 05:00:27;;;;;;;15.82;7.90;;;;;;;20.16;88.88;97027.63;5008526;28;20125;-63
2021/07/18 05:02:53;;;;;;;17.67;7.63;;;;;;;20.19;85.96;97030.34;5031851;28;20127;-62
2021/07/18 05:05:19;;;;;;;12.23;7.38;;;;;;;20.43;85.20;97035.91;5022086;28;20083;-62
2021/07/18 05:07:46;;;;;;;11.68;7.53;;;;;;;21.00;83.74;97034.88;5026485;28;20552;-62
2021/07/18 05:10:12;;;;;;;11.95;6.53;;;;;;;21.34;80.87;97036.56;5025229;28;20535;-63
2021/07/18 05:12:38;;;;;;;11.75;6.78;;;;;;;21.96;77.35;97038.81;5027450;28;20112;-63
2021/07/18 05:15:05;;;;;;;12.80;5.95;;;;;;;22.56;74.57;97049.72;5036335;28;20081;-63
2021/07/18 05:17:31;;;;;;;9.25;5.72;;;;;;;22.60;72.35;97049.63;5032992;28;20111;-63
2021/07/18 05:19:58;;;;;;;14.82;5.60;;;;;;;22.05;74.10;97060.53;5033302;28;20371;-63
2021/07/18 05:22:23;;;;;;;10.15;4.85;;;;;;;21.15;76.22;97059.66;5024303;28;20258;-63
2021/07/18 05:24:49;;;;;;;13.35;5.00;;;;;;;21.26;75.84;97063.00;5029969;28;20045;-64
2021/07/18 05:27:14;;;;;;;12.70;4.60;;;;;;;21.51;73.49;97056.16;5027823;28;20560;-64
2021/07/18 05:29:40;;;;;;;7.55;4.07;;;;;;;21.82;72.09;97050.31;5037135;28;20045;-64
2021/07/18 05:32:06;;;;;;;16.38;5.72;;;;;;;21.66;71.96;97059.41;5028849;28;20144;-64
2021/07/18 05:34:32;;;;;;;9.70;4.85;;;;;;;20.74;75.21;97058.84;5029693;28;20057;-64
2021/07/18 05:36:57;;;;;;;9.60;4.80;;;;;;;22.42;70.52;97056.47;5039107;28;20091;-64
2021/07/18 05:39:23;;;;;;;8.68;3.90;;;;;;;24.53;62.36;97056.44;5028299;28;20048;-63
2021/07/18 05:41:48;;;;;;;9.25;3.80;;;;;;;25.46;58.78;97055.97;5043591;28;20186;-64
2021/07/18 05:44:14;;;;;;;6.55;3.50;;;;;;;26.24;55.80;97053.38;5020113;28;20113;-64
2021/07/18 05:46:39;;;;;;;7.55;3.72;;;;;;;26.89;54.95;97057.13;5021582;28;20049;-64
2021/07/18 05:49:05;;;;;;;9.20;3.08;;;;;;;26.21;51.44;97057.09;5015708;28;20390;-64
2021/07/18 05:51:30;;;;;;;8.57;3.35;;;;;;;24.57;56.66;97055.06;5023169;28;20041;-64
2021/07/18 05:53:55;;;;;;;5.65;3.05;;;;;;;25.91;53.62;97059.44;5033932;28;20045;-65
2021/07/18 05:56:21;;;;;;;10.48;3.65;;;;;;;25.83;55.19;97061.00;5037998;28;20389;-65
2021/07/18 05:58:47;;;;;;;5.20;3.05;;;;;;;24.87;58.36;97061.25;5038890;28;20083;-64
2021/07/18 06:01:13;;;;;;;8.75;2.83;;;;;;;27.32;50.01;97048.84;5036578;28;20069;-64
2021/07/18 06:03:38;;;;;;;9.35;2.70;;;;;;;26.30;50.10;97054.31;5030577;28;20033;-64
2021/07/18 06:06:04;;;;;;;7.53;3.20;;;;;;;26.66;52.06;97050.06;5033970;28;20524;-67
2021/07/18 06:08:29;;;;;;;5.40;2.45;;;;;;;27.18;50.89;97055.84;5035556;28;20137;-65
2021/07/18 06:10:55;;;;;;;7.78;2.50;;;;;;;23.40;57.01;97041.47;5034467;28;20041;-65
2021/07/18 06:13:20;;;;;;;12.60;3.20;;;;;;;23.53;59.68;97049.09;5021066;28;20493;-64
2021/07/18 06:15:46;;;;;;;10.30;2.53;;;;;;;26.50;51.72;97046.25;5027420;28;20119;-64
2021/07/18 06:18:11;;;;;;;3.33;2.10;;;;;;;27.68;46.98;97045.19;5026194;28;20438;-64
2021/07/18 06:20:38;;;;;;;7.38;2.63;;;;;;;28.16;44.52;97050.16;5037488;28;20037;-64
2021/07/18 06:23:05;;;;;;;7.43;2.50;;;;;;;28.75;42.85;97050.47;5034516;28;20040;-64
2021/07/18 06:25:31;;;;;;;10.43;2.88;;;;;;;28.34;43.43;97050.09;5038246;28;20044;-64
2021/07/18 06:27:58;;;;;;;4.65;2.60;;;;;;;23.88;55.71;97060.47;5029254;28;20041;-64
2021/07/18 06:30:23;;;;;;;8.93;2.80;;;;;;;22.86;57.80;97058.94;5018329;28;20725;-64
2021/07/18 06:32:49;;;;;;;6.32;3.15;;;;;;;22.43;61.07;97057.25;5041071;28;20049;-64
2021/07/18 06:35:14;;;;;;;9.60;3.42;;;;;;;21.79;64.10;97051.16;5026539;28;20053;-64
2021/07/18 06:37:40;;;;;;;9.32;2.80;;;;;;;21.68;64.96;97062.56;5038984;28;20094;-63
2021/07/18 06:40:07;;;;;;;8.20;3.53;;;;;;;22.18;64.61;97066.97;5019422;28;20186;-64
2021/07/18 06:42:33;;;;;;;10.32;3.28;;;;;;;24.57;58.38;97052.25;5033382;28;20085;-64
2021/07/18 06:45:01;;;;;;;7.35;2.53;;;;;;;25.05;55.10;97060.63;5036982;28;20073;-65
2021/07/18 06:47:27;;;;;;;14.63;2.75;;;;;;;23.18;58.70;97068.47;5030874;28;20426;-64
2021/07/18 06:49:53;;;;;;;6.13;3.00;;;;;;;23.03;60.48;97063.25;5035304;28;20072;-64
2021/07/18 06:52:19;;;;;;;5.85;2.85;;;;;;;21.85;64.32;97074.53;5028528;28;20628;-64
2021/07/18 06:54:44;;;;;;;6.80;3.28;;;;;;;21.93;64.21;97064.78;5033081;28;20140;-64
2021/07/18 06:57:10;;;;;;;10.27;3.78;;;;;;;22.37;61.49;97072.97;5022746;28;20068;-64
2021/07/18 06:59:35;;;;;;;8.70;3.13;;;;;;;22.44;61.40;97067.22;5040721;28;20381;-64
2021/07/18 07:02:01;;;;;;;8.25;3.55;;;;;;;21.69;65.89;97076.06;5039097;28;20076;-63
2021/07/18 07:04:26;;;;;;;7.45;3.25;;;;;;;24.13;56.84;97074.47;5035591;28;20529;-64
2021/07/18 07:06:52;;;;;;;6.35;2.78;;;;;;;23.58;57.99;97080.09;5044864;28;20052;-63
2021/07/18 07:09:17;;;;;;;9.57;2.67;;;;;;;22.85;60.90;97076.91;5024339;28;20069;-62
2021/07/18 07:11:43;;;;;;;9.73;2.95;;;;;;;21.75;65.59;97082.72;5035090;28;20052;-62
2021/07/18 07:14:09;;;;;;;11.15;3.28;;;;;;;21.76;64.85;97077.91;5025784;28;20049;-62
2021/07/18 07:16:36;;;;;;;6.45;2.95;;;;;;;22.68;62.90;97068.56;5019927;28;20036;-63
2021/07/18 07:19:03;;;;;;;6.82;2.90;;;;;;;22.98;61.50;97069.38;5018401;28;20579;-63
2021/07/18 07:21:29;;;;;;;7.03;2.97;;;;;;;23.10;62.08;97065.09;5017302;28;20819;-62
2021/07/18 07:23:55;;;;;;;10.93;3.25;;;;;;;22.41;63.08;97071.66;5031695;28;20048;-64
2021/07/18 07:26:20;;;;;;;8.77;2.83;;;;;;;22.86;61.16;97064.53;5031468;28;20556;-64
2021/07/18 07:28:46;;;;;;;6.32;2.92;;;;;;;23.60;58.81;97068.47;5032921;28;20040;-63
2021/07/18 07:31:12;;;;;;;7.75;3.03;;;;;;;22.55;61.74;97073.31;5026771;28;20111;-63
2021/07/18 07:33:38;;;;;;;7.93;2.63;;;;;;;22.99;62.92;97068.16;5035207;28;20083;-64
2021/07/18 07:36:04;;;;;;;9.73;3.75;;;;;;;22.37;62.96;97067.38;5027277;28;20049;-63
2021/07/18 07:38:30;;;;;;;10.55;3.60;;;;;;;21.92;65.00;97075.16;5035188;28;20068;-64
2021/07/18 07:40:56;;;;;;;9.73;3.20;;;;;;;22.55;63.62;97076.09;5043854;28;20060;-64
2021/07/18 07:43:23;;;;;;;9.93;3.35;;;;;;;22.89;62.39;97077.63;5025469;28;20153;-63
2021/07/18 07:45:49;;;;;;;7.00;3.17;;;;;;;22.32;63.40;97077.06;5035351;28;20702;-63
2021/07/18 07:48:15;;;;;;;5.65;3.40;;;;;;;21.66;66.46;97074.16;5025669;28;20517;-63
2021/07/18 07:50:41;;;;;;;9.40;3.33;;;;;;;23.59;61.24;97070.50;5031518;28;20045;-63
2021/07/18 07:53:07;;;;;;;7.78;3.30;;;;;;;22.39;64.13;97068.50;5027965;28;21204;-63
2021/07/18 07:55:33;;;;;;;14.07;4.05;;;;;;;22.42;64.25;97075.22;5033910;28;20122;-64
2021/07/18 07:57:59;;;;;;;5.63;3.03;;;;;;;22.41;61.90;97071.66;5020682;28;20494;-64
2021/07/18 08:00:25;;;;;;;6.40;3.30;;;;;;;24.20;59.35;97065.84;5023094;28;20069;-64
2021/07/18 08:02:51;;;;;;;7.40;2.80;;;;;;;25.02;56.36;97071.97;5039690;28;20060;-64
2021/07/18 08:05:18;;;;;;;8.45;3.40;;;;;;;24.32;56.26;97067.06;5030859;28;20559;-64
2021/07/18 08:07:43;;;;;;;9.23;3.20;;;;;;;23.98;57.67;97067.75;5030458;28;20055;-64
2021/07/18 08:10:20;;;;;;;7.50;3.60;;;;;;;23.31;58.82;97052.53;5029244;28;20045;-64
2021/07/18 08:12:47;;;;;;;6.93;2.78;;;;;;;26.52;51.87;97057.03;5030140;28;20053;-64
2021/07/18 08:15:14;;;;;;;4.72;2.05;;;;;;;26.00;52.27;97058.75;5016070;28;20053;-64
2021/07/18 08:17:41;;;;;;;15.73;3.10;;;;;;;24.68;56.89;97057.50;5038781;28;20804;-64
2021/07/18 08:20:09;;;;;;;10.07;3.25;;;;;;;23.45;59.60;97048.53;5025823;28;20128;-63
2021/07/18 08:22:35;;;;;;;10.13;2.80;;;;;;;24.30;57.62;97054.75;5036464;28;20036;-64
2021/07/18 08:25:00;;;;;;;10.50;2.90;;;;;;;25.85;51.81;97050.09;5028704;28;20421;-64
2021/07/18 08:27:26;;;;;;;7.00;3.35;;;;;;;25.45;53.58;97057.19;5030840;28;20110;-63
2021/07/18 08:29:51;;;;;;;6.72;2.70;;;;;;;26.12;51.44;97053.00;5035036;28;20103;-62
2021/07/18 08:32:17;;;;;;;10.20;3.25;;;;;;;27.27;48.44;97053.06;5023544;28;20049;-65
2021/07/18 08:34:42;;;;;;;6.68;2.50;;;;;;;25.11;52.71;97055.22;5037869;28;20140;-62
2021/07/18 08:37:08;;;;;;;6.60;2.97;;;;;;;26.11;51.90;97050.69;5025392;28;20041;-65
2021/07/18 08:39:33;;;;;;;5.75;2.95;;;;;;;24.08;57.87;97040.69;5033648;28;20078;-64
2021/07/18 08:42:00;;;;;;;5.75;2.35;;;;;;;23.87;59.56;97048.50;5027898;28;20571;-63
2021/07/18 08:44:25;;;;;;;7.05;3.00;;;;;;;23.81;58.22;97050.31;5029814;28;20045;-63
2021/07/18 08:46:51;;;;;;;10.88;3.03;;;;;;;23.18;60.00;97058.09;5027951;28;20041;-63
2021/07/18 08:49:16;;;;;;;5.72;2.75;;;;;;;25.87;53.28;97056.78;5018971;28;20082;-63
2021/07/18 08:51:42;;;;;;;13.32;3.25;;;;;;;25.58;51.82;97050.72;5035991;28;20532;-63
2021/07/18 08:54:08;;;;;;;6.78;3.05;;;;;;;24.79;53.55;97043.13;5024870;28;20050;-63
2021/07/18 08:56:35;;;;;;;6.47;2.95;;;;;;;24.92;55.63;97041.06;5038525;28;20532;-64
2021/07/18 08:59:06;;;;;;;6.47;2.08;;;;;;;26.89;49.32;97041.03;5040259;28;20037;-64
2021/07/18 09:01:33;;;;;;;6.03;2.38;;;;;;;27.47;47.56;97035.69;5032411;28;20812;-64
2021/07/18 09:03:59;;;;;;;10.40;2.88;;;;;;;25.07;52.76;97030.13;5040633;28;20114;-64
2021/07/18 09:06:42;;;;;;;7.78;2.63;;;;;;;26.51;50.74;97035.81;5031229;28;20071;-65
2021/07/18 09:09:11;;;;;;;5.60;2.10;;;;;;;27.11;48.53;97030.88;5029821;28;20044;-65
2021/07/18 09:11:37;;;;;;;7.97;2.08;;;;;;;27.50;48.35;97029.13;5028079;28;20045;-65
2021/07/18 09:14:05;;;;;;;6.45;2.53;;;;;;;28.66;44.34;97024.41;5034287;28;20037;-66
2021/07/18 09:16:35;;;;;;;10.30;2.38;;;;;;;27.84;45.35;97025.09;5030175;28;20137;-64
2021/07/18 09:19:34;;;;;;;5.32;1.90;;;;;;;28.73;44.23;97022.00;5029572;28;20519;-64
2021/07/18 09:22:22;;;;;;;8.52;2.00;;;;;;;28.77;44.51;97019.78;5040272;28;20501;-63
2021/07/18 09:24:53;;;;;;;5.80;2.80;;;;;;;28.69;45.27;97020.63;5032022;28;20049;-64
2021/07/18 09:27:33;;;;;;;4.95;2.45;;;;;;;29.27;43.91;97012.78;5029067;28;20493;-63
2021/07/18 09:30:17;;;;;;;8.65;2.78;;;;;;;28.44;45.97;97025.47;5039515;28;20041;-64
2021/07/18 09:32:46;;;;;;;11.30;3.50;;;;;;;28.07;47.02;97022.84;5035420;28;20053;-64
2021/07/18 09:35:17;;;;;;;9.93;4.25;;;;;;;27.51;47.61;97022.22;5024605;28;20136;-64
2021/07/18 09:37:47;;;;;;;8.30;3.00;;;;;;;26.85;50.63;97022.78;5037720;28;20077;-64
2021/07/18 09:40:19;;;;;;;9.30;4.13;;;;;;;26.57;51.30;97019.91;5038342;28;20052;-64
2021/07/18 09:42:48;;;;;;;11.15;4.30;;;;;;;26.44;52.14;97017.22;5034243;28;20053;-64
2021/07/18 09:45:21;;;;;;;7.80;3.17;;;;;;;25.42;54.71;97013.25;4988462;28;1166083;-64
2021/07/18 09:47:59;;;;;;;8.02;3.05;;;;;;;25.93;53.15;97018.50;5037525;28;20046;-64
2021/07/18 09:50:32;;;;;;;9.13;3.10;;;;;;;25.54;54.30;97014.41;5034783;28;20049;-64
2021/07/18 09:53:22;;;;;;;9.30;3.38;;;;;;;24.53;57.57;97015.19;5035056;28;20427;-64
2021/07/18 09:56:01;;;;;;;11.63;4.38;;;;;;;24.64;57.39;97012.03;5030941;28;20387;-63
2021/07/18 09:58:30;;;;;;;6.53;3.37;;;;;;;24.67;58.00;97019.53;5029320;28;20037;-64
2021/07/18 10:00:57;;;;;;;11.60;3.83;;;;;;;25.52;55.95;97009.25;5033781;28;20076;-63
2021/07/18 10:03:24;;;;;;;8.20;3.17;;;;;;;25.80;54.73;97008.59;5017838;28;20382;-63
2021/07/18 10:06:12;;;;;;;10.00;3.13;;;;;;;26.35;53.21;97005.22;5025684;28;20171;-65
2021/07/18 10:08:40;;;;;;;7.10;3.45;;;;;;;26.48;54.76;97008.66;5034494;28;20129;-64
2021/07/18 10:11:08;;;;;;;7.88;3.15;;;;;;;26.75;51.70;96993.09;5033351;28;20145;-65
2021/07/18 10:13:36;;;;;;;11.27;3.85;;;;;;;26.85;52.48;96987.00;5033717;28;20708;-64
2021/07/18 10:16:01;;;;;;;7.40;3.50;;;;;;;26.75;52.22;96993.88;5031331;28;20045;-63
2021/07/18 10:18:28;;;;;;;10.07;3.78;;;;;;;27.03;51.37;96991.84;5024209;28;20390;-64
2021/07/18 10:20:54;;;;;;;7.05;3.83;;;;;;;27.75;49.33;96985.75;5035335;28;20040;-62
2021/07/18 10:23:22;;;;;;;7.78;3.42;;;;;;;27.60;49.67;96988.47;5028704;28;20045;-63
2021/07/18 10:25:51;;;;;;;9.50;2.83;;;;;;;28.32;47.25;96992.66;5036570;28;20387;-62
2021/07/18 10:28:17;;;;;;;6.95;2.78;;;;;;;28.32;46.03;96993.44;5029266;28;20110;-63
2021/07/18 10:30:47;;;;;;;9.35;3.60;;;;;;;27.43;49.47;96988.03;5032564;28;20529;-64
2021/07/18 10:33:17;;;;;;;7.57;3.38;;;;;;;27.23;50.99;96990.56;5022459;28;20394;-63
2021/07/18 10:35:44;;;;;;;5.68;3.17;;;;;;;27.24;50.04;96987.28;5018015;28;20731;-63
2021/07/18 10:38:27;;;;;;;6.53;3.25;;;;;;;27.78;48.92;96986.81;5019572;28;20040;-62
2021/07/18 10:40:55;;;;;;;8.63;3.45;;;;;;;27.88;49.15;96987.56;5033345;28;20059;-63
2021/07/18 10:43:46;;;;;;;10.45;3.38;;;;;;;27.53;50.01;96986.00;5025820;28;20581;-62
2021/07/18 10:46:14;;;;;;;6.20;2.90;;;;;;;28.04;48.24;96987.22;5017550;28;20052;-63
2021/07/18 10:48:52;;;;;;;6.22;3.25;;;;;;;26.54;50.84;96992.72;5025206;28;20037;-63
2021/07/18 10:51:19;;;;;;;10.75;5.35;;;;;;;25.89;53.18;97000.22;5032202;28;20406;-63
2021/07/18 10:53:46;;;;;;;12.07;6.43;;;;;;;24.91;55.44;96999.50;5034467;28;20050;-62
2021/07/18 10:56:17;;;;;;;14.82;6.78;;;;;;;24.33;56.32;96992.28;5029426;28;20041;-64
2021/07/18 10:58:45;;;;;;;15.98;8.77;;;;;;;24.51;56.83;96988.88;5032478;28;20040;-62
2021/07/18 11:01:10;;;;;;;21.30;10.57;;;;;;;25.09;56.13;96996.81;5035123;28;20129;-63
2021/07/18 11:03:36;;;;;;;10.97;5.30;;;;;;;25.44;53.34;96991.13;5033604;28;20132;-64
2021/07/18 11:06:23;;;;;;;7.97;3.28;;;;;;;24.30;57.25;96988.34;5024743;28;20792;-63
2021/07/18 11:09:19;;;;;;;14.48;5.38;;;;;;;24.58;55.56;96991.47;5026583;28;20048;-63
2021/07/18 11:11:57;;;;;;;10.73;5.60;;;;;;;24.77;56.56;96987.53;5030297;28;20064;-63
2021/07/18 11:14:23;;;;;;;10.07;5.30;;;;;;;24.55;54.76;96990.31;5032149;28;20130;-63
2021/07/18 11:16:53;;;;;;;15.82;4.97;;;;;;;24.29;57.40;96989.59;5045052;28;20041;-62
2021/07/18 11:19:40;;;;;;;9.95;4.70;;;;;;;24.06;57.23;96990.75;5029987;28;20397;-62
2021/07/18 11:22:12;;;;;;;12.45;4.28;;;;;;;23.67;58.54;96987.94;5025525;28;20056;-63